Time;durP1;ratioP1;P1;durP2;ratioP2;P2;SDS_P1;SDS_P2;PMS_P1;PMS_P2;Temp;Humidity;BMP_temperature;BMP_pressure;BME280_temperature;BME280_humidity;BME280_pressure;Samples;Min_cycle;Max_cycle;Signal;HPM_P1;HPM_P2
2021/03/01 00:00:40;;;;;;;31.00;19.30;;;;;;;4.55;90.79;101740.30;1632551;86;21443;-65
2021/03/01 00:03:06;;;;;;;28.40;18.25;;;;;;;4.58;90.53;101733.61;1624722;86;25784;-67
2021/03/01 00:05:31;;;;;;;34.92;20.70;;;;;;;4.46;90.44;101735.56;1626944;86;23837;-68
2021/03/01 00:07:57;;;;;;;33.30;20.43;;;;;;;4.37;90.86;101743.88;1625704;86;28912;-67
2021/03/01 00:10:24;;;;;;;33.60;20.68;;;;;;;4.39;90.74;101745.94;1630555;86;26670;-67
2021/03/01 00:12:50;;;;;;;36.33;21.57;;;;;;;4.42;90.81;101742.70;1622719;86;21616;-67
2021/03/01 00:15:17;;;;;;;34.00;20.65;;;;;;;4.48;90.64;101754.64;1627904;86;26459;-65
2021/03/01 00:17:42;;;;;;;39.75;22.17;;;;;;;4.39;90.64;101745.94;1627981;86;21748;-65
2021/03/01 00:20:11;;;;;;;38.10;23.77;;;;;;;4.34;90.78;101753.18;1623926;86;29040;-66
2021/03/01 00:22:38;;;;;;;41.05;25.23;;;;;;;4.39;90.85;101749.39;1624320;86;21235;-65
2021/03/01 00:25:05;;;;;;;42.93;26.10;;;;;;;4.48;90.43;101757.25;1623426;86;21272;-67
2021/03/01 00:27:31;;;;;;;;;;;;;;;4.55;90.27;101758.61;1629043;86;21534;-68
2021/03/01 00:29:57;;;;;;;45.43;29.43;;;;;;;4.55;89.96;101761.23;1628106;86;22821;-67
2021/03/01 00:32:22;;;;;;;46.10;29.25;;;;;;;4.59;89.94;101760.16;1597350;87;28355;-69
2021/03/01 00:34:48;;;;;;;47.83;29.55;;;;;;;4.63;89.57;101754.30;1624119;86;26767;-67
2021/03/01 00:37:14;;;;;;;47.70;30.72;;;;;;;4.62;89.34;101757.39;1632703;86;21448;-67
2021/03/01 00:39:40;;;;;;;47.17;29.48;;;;;;;4.71;89.51;101760.45;1620404;86;28186;-67
2021/03/01 00:42:06;;;;;;;47.40;29.23;;;;;;;4.68;88.69;101764.09;1624477;86;25153;-67
2021/03/01 00:44:31;;;;;;;46.98;29.48;;;;;;;4.81;88.68;101760.38;1625953;86;29537;-67
2021/03/01 00:46:57;;;;;;;43.35;29.15;;;;;;;4.96;88.01;101766.13;1626620;86;26735;-67
2021/03/01 00:49:23;;;;;;;44.98;30.02;;;;;;;5.12;87.63;101754.86;1629199;86;21753;-68
2021/03/01 00:51:49;;;;;;;43.40;29.30;;;;;;;5.16;87.32;101752.00;1640658;84;27055;-67
2021/03/01 00:54:14;;;;;;;49.50;32.33;;;;;;;5.12;87.20;101753.55;1640933;85;23721;-67
2021/03/01 00:56:40;;;;;;;46.48;31.23;;;;;;;4.97;86.83;101759.98;1639854;85;28442;-67
2021/03/01 00:59:06;;;;;;;45.12;30.10;;;;;;;4.97;87.26;101754.75;1641451;85;26831;-68
2021/03/01 01:01:32;;;;;;;52.30;34.25;;;;;;;4.88;87.33;101759.59;1639425;85;21834;-68
2021/03/01 01:03:58;;;;;;;50.33;31.57;;;;;;;4.82;87.83;101757.69;1643281;85;21247;-68
2021/03/01 01:06:23;;;;;;;45.97;32.37;;;;;;;4.84;87.65;101760.22;1641196;85;25664;-67
2021/03/01 01:08:49;;;;;;;47.03;32.08;;;;;;;4.77;87.62;101757.53;1642054;85;28337;-68
2021/03/01 01:11:15;;;;;;;45.83;31.27;;;;;;;4.73;87.77;101766.48;1642309;85;26839;-67
2021/03/01 01:13:41;;;;;;;47.75;32.20;;;;;;;4.76;87.79;101759.78;1640235;85;21905;-67
2021/03/01 01:16:06;;;;;;;46.67;30.80;;;;;;;4.77;87.57;101761.45;1639848;86;27456;-66
2021/03/01 01:18:32;;;;;;;40.73;27.87;;;;;;;4.77;87.73;101761.45;1641178;85;23816;-67
2021/03/01 01:20:58;;;;;;;45.55;30.32;;;;;;;4.75;87.49;101769.86;1642229;85;28566;-67
2021/03/01 01:23:23;;;;;;;45.23;31.25;;;;;;;4.62;87.82;101770.48;1642257;85;26723;-67
2021/03/01 01:25:49;;;;;;;44.25;28.87;;;;;;;4.71;87.89;101768.30;1642078;85;21941;-67
2021/03/01 01:28:15;;;;;;;46.33;30.27;;;;;;;4.70;87.76;101773.17;1642446;85;25941;-66
2021/03/01 01:30:41;;;;;;;42.73;29.93;;;;;;;4.71;87.80;101763.94;1646434;85;24699;-66
2021/03/01 01:33:07;;;;;;;45.65;30.45;;;;;;;4.65;87.93;101765.56;1641880;85;21836;-66
2021/03/01 01:35:33;;;;;;;46.10;30.10;;;;;;;4.38;88.39;101773.01;1643710;84;26769;-67
2021/03/01 01:37:59;;;;;;;44.83;28.98;;;;;;;4.54;88.37;101777.88;1643773;85;21892;-66
2021/03/01 01:40:24;;;;;;;40.77;27.80;;;;;;;4.57;88.50;101782.95;1642414;86;25450;-66
2021/03/01 01:42:51;;;;;;;41.77;27.87;;;;;;;4.58;88.23;101783.31;1646525;84;23985;-67
2021/03/01 01:45:22;;;;;;;42.48;26.85;;;;;;;4.61;88.19;101776.63;1644451;85;21662;-66
2021/03/01 01:47:49;;;;;;;40.45;26.27;;;;;;;4.54;88.32;101785.72;1643138;85;21235;-66
2021/03/01 01:50:16;;;;;;;39.58;26.37;;;;;;;4.59;88.17;101788.95;1645340;85;21260;-66
2021/03/01 01:52:42;;;;;;;39.03;26.40;;;;;;;4.51;88.38;101786.34;1669402;85;21726;-66
2021/03/01 01:55:09;;;;;;;39.93;26.83;;;;;;;4.41;88.91;101787.24;1668950;85;21832;-66
2021/03/01 01:57:37;;;;;;;38.45;25.72;;;;;;;4.46;88.76;101789.19;1669605;84;21300;-66
2021/03/01 02:00:10;;;;;;;;;;;;;;;4.56;88.56;101791.72;1671559;84;21656;-66
2021/03/01 02:02:36;;;;;;;35.38;22.42;;;;;;;4.41;88.56;101785.49;1668114;85;20304;-66
2021/03/01 02:05:04;;;;;;;35.60;22.75;;;;;;;4.62;88.37;101790.10;1668153;85;27019;-64
2021/03/01 02:07:51;;;;;;;40.90;23.90;;;;;;;4.87;87.39;101787.55;1669328;84;21657;-65
2021/03/01 02:10:45;;;;;;;34.15;22.65;;;;;;;4.96;86.90;101784.46;1669507;85;21624;-66
2021/03/01 02:13:21;;;;;;;30.50;20.15;;;;;;;4.77;87.14;101791.55;1669986;84;21144;-65
2021/03/01 02:16:09;;;;;;;31.50;21.17;;;;;;;4.77;87.14;101791.55;1664851;85;23375;-65
2021/03/01 02:18:35;;;;;;;31.35;21.20;;;;;;;4.76;87.26;101784.64;1668518;85;21189;-66
2021/03/01 02:21:08;;;;;;;33.30;22.80;;;;;;;4.75;87.11;101788.17;1670879;84;25593;-65
2021/03/01 02:23:34;;;;;;;33.85;21.68;;;;;;;4.68;87.53;101787.17;1670557;85;21181;-65
2021/03/01 02:26:12;;;;;;;30.45;20.15;;;;;;;4.56;87.86;101782.56;1669442;85;26798;-65
2021/03/01 02:28:44;;;;;;;25.82;17.20;;;;;;;4.67;87.80;101784.16;1670671;84;21197;-66
2021/03/01 02:31:09;;;;;;;29.65;19.57;;;;;;;4.64;87.40;101780.39;1671035;84;21220;-65
2021/03/01 02:33:43;;;;;;;29.90;19.67;;;;;;;4.63;87.49;101785.27;1667378;85;24795;-66
2021/03/01 02:36:27;;;;;;;30.35;19.45;;;;;;;4.62;87.54;101787.48;1640523;85;21628;-66
2021/03/01 02:38:53;;;;;;;29.18;19.37;;;;;;;4.68;87.59;101781.94;1668144;85;22295;-65
2021/03/01 02:41:19;;;;;;;29.60;18.90;;;;;;;4.71;87.63;101786.63;1670817;84;21904;-65
2021/03/01 02:43:45;;;;;;;30.08;19.45;;;;;;;4.77;87.36;101788.94;1668524;85;27039;-65
2021/03/01 02:46:11;;;;;;;29.20;19.73;;;;;;;4.76;87.12;101788.57;1668701;84;24790;-65
2021/03/01 02:48:38;;;;;;;30.10;19.67;;;;;;;4.79;87.14;101784.48;1669437;85;21180;-66
2021/03/01 02:51:05;;;;;;;29.07;19.25;;;;;;;4.76;87.16;101789.87;1664941;85;21241;-65
2021/03/01 02:53:31;;;;;;;24.43;17.40;;;;;;;4.77;87.03;101793.73;1648209;85;21267;-66
2021/03/01 02:55:57;;;;;;;26.42;17.20;;;;;;;4.58;87.32;101797.70;1627088;86;26336;-66
2021/03/01 02:58:22;;;;;;;27.10;17.73;;;;;;;4.53;87.55;101797.09;1649252;85;24467;-65
2021/03/01 03:00:48;;;;;;;22.98;16.37;;;;;;;4.49;87.93;101801.65;1625645;86;28383;-65
2021/03/01 03:03:14;;;;;;;26.75;17.30;;;;;;;4.54;87.60;101800.11;1650950;85;27202;-66
2021/03/01 03:05:41;;;;;;;27.20;17.65;;;;;;;4.51;87.77;101801.57;1651610;85;21961;-66
2021/03/01 03:08:07;;;;;;;25.95;17.45;;;;;;;4.54;87.74;101803.17;1649847;85;21251;-66
2021/03/01 03:10:33;;;;;;;23.50;16.17;;;;;;;4.51;87.79;101804.19;1649588;85;25057;-65
2021/03/01 03:12:59;;;;;;;23.18;16.57;;;;;;;4.57;87.71;101809.56;1652264;85;21259;-66
2021/03/01 03:15:25;;;;;;;28.02;18.00;;;;;;;4.58;87.57;101809.48;1650123;85;26549;-65
2021/03/01 03:17:51;;;;;;;29.37;17.67;;;;;;;4.67;87.45;101809.50;1649322;85;22407;-65
2021/03/01 03:20:17;;;;;;;26.37;18.17;;;;;;;4.79;86.93;101809.35;1649674;86;27107;-65
2021/03/01 03:22:42;;;;;;;26.95;18.27;;;;;;;4.90;86.28;101816.19;1649702;85;24715;-65
2021/03/01 03:25:10;;;;;;;26.73;17.73;;;;;;;4.94;86.23;101806.39;1649114;85;28340;-65
2021/03/01 03:27:36;;;;;;;26.97;17.12;;;;;;;5.06;85.97;101814.93;1649777;85;23227;-65
2021/03/01 03:30:17;;;;;;;24.92;15.83;;;;;;;4.99;85.74;101814.88;1649723;85;22273;-65
2021/03/01 03:32:43;;;;;;;25.80;16.35;;;;;;;4.92;85.80;101818.25;1649394;85;21237;-65
2021/03/01 03:35:11;;;;;;;28.03;18.20;;;;;;;4.99;85.79;101820.13;1650334;85;25729;-66
2021/03/01 03:37:47;;;;;;;27.87;18.37;;;;;;;4.98;85.62;101824.48;1650454;85;27097;-66
2021/03/01 03:40:14;;;;;;;28.57;19.27;;;;;;;4.99;85.59;101824.88;1650737;85;21262;-66
2021/03/01 03:42:39;;;;;;;28.95;18.87;;;;;;;4.93;85.54;101821.27;1648979;85;22384;-66
2021/03/01 03:45:07;;;;;;;34.78;22.10;;;;;;;4.91;85.73;101824.44;1626769;86;26219;-65
2021/03/01 03:47:33;;;;;;;32.58;21.52;;;;;;;4.86;85.82;101825.11;1649626;85;21640;-65
2021/03/01 03:49:59;;;;;;;29.63;19.52;;;;;;;4.82;85.86;101830.97;1649395;85;21251;-65
2021/03/01 03:52:27;;;;;;;27.60;17.67;;;;;;;4.80;86.09;101831.96;1651113;85;26745;-66
2021/03/01 03:54:53;;;;;;;24.27;15.88;;;;;;;4.81;86.07;101837.59;1649720;85;21246;-66
2021/03/01 03:57:22;;;;;;;25.35;15.78;;;;;;;4.81;85.87;101840.20;1628244;86;27042;-66
2021/03/01 03:59:48;;;;;;;24.90;15.25;;;;;;;4.80;86.03;101845.05;1650103;85;21222;-65
2021/03/01 04:02:14;;;;;;;20.55;14.23;;;;;;;4.80;85.97;101843.73;1649928;85;28729;-65
2021/03/01 04:04:40;;;;;;;20.45;13.88;;;;;;;4.77;86.03;101846.51;1649041;85;26821;-65
2021/03/01 04:07:06;;;;;;;18.80;12.95;;;;;;;4.80;85.85;101845.05;1650686;85;21851;-65
2021/03/01 04:09:32;;;;;;;22.47;14.77;;;;;;;4.81;85.54;101843.66;1649489;85;25759;-65
2021/03/01 04:11:57;;;;;;;22.63;15.80;;;;;;;4.85;85.52;101849.61;1648859;85;25084;-65
2021/03/01 04:14:25;;;;;;;24.20;16.10;;;;;;;4.83;85.32;101842.28;1648719;85;29080;-64
2021/03/01 04:16:58;;;;;;;24.80;16.60;;;;;;;4.88;85.20;101844.22;1649274;85;21556;-65
2021/03/01 04:19:25;;;;;;;26.50;17.52;;;;;;;4.85;85.13;101836.52;1649887;85;21243;-66
2021/03/01 04:21:56;;;;;;;27.95;18.15;;;;;;;4.85;85.30;101841.77;1650099;85;21238;-66
2021/03/01 04:24:22;;;;;;;29.95;20.23;;;;;;;4.78;85.33;101843.81;1649337;85;21652;-66
2021/03/01 04:26:48;;;;;;;31.97;22.32;;;;;;;4.84;85.53;101840.05;1649325;85;21278;-66
2021/03/01 04:29:13;;;;;;;36.88;24.80;;;;;;;4.81;85.45;101837.59;1650657;85;26697;-66
2021/03/01 04:31:39;;;;;;;43.83;27.95;;;;;;;4.81;85.55;101832.36;1649395;85;21911;-66
2021/03/01 04:34:05;;;;;;;44.27;28.32;;;;;;;4.72;86.00;101832.81;1650316;85;27082;-66
2021/03/01 04:36:31;;;;;;;41.10;28.53;;;;;;;4.68;86.30;101835.59;1651367;85;26305;-66
2021/03/01 04:38:56;;;;;;;41.10;27.25;;;;;;;4.76;86.12;101832.59;1624594;85;29258;-67
2021/03/01 04:41:23;;;;;;;45.00;30.05;;;;;;;4.83;85.98;101833.12;1651403;85;26764;-66
2021/03/01 04:43:48;;;;;;;45.08;29.27;;;;;;;4.88;85.77;101825.91;1650012;85;21325;-67
2021/03/01 04:46:14;;;;;;;42.43;28.63;;;;;;;4.89;85.59;101827.58;1649729;85;25468;-66
2021/03/01 04:48:40;;;;;;;43.43;29.00;;;;;;;4.80;85.53;101826.73;1626154;85;25724;-66
2021/03/01 04:51:06;;;;;;;43.40;29.00;;;;;;;4.85;85.72;101832.59;1649392;85;28797;-67
2021/03/01 04:53:33;;;;;;;43.50;29.10;;;;;;;4.79;85.58;101832.91;1643543;85;26721;-66
2021/03/01 04:55:59;;;;;;;41.50;29.20;;;;;;;4.71;86.06;101829.80;1617426;86;21307;-66
2021/03/01 04:58:25;;;;;;;46.95;31.00;;;;;;;4.75;86.00;101836.59;1639897;85;27143;-66
2021/03/01 05:00:51;;;;;;;49.00;32.15;;;;;;;4.71;86.12;101841.58;1644424;85;24316;-64
2021/03/01 05:03:17;;;;;;;49.80;32.33;;;;;;;4.68;86.33;101844.74;1643409;85;21275;-64
2021/03/01 05:05:43;;;;;;;46.65;31.07;;;;;;;4.72;86.28;101848.52;1641537;85;26808;-65
2021/03/01 05:08:14;;;;;;;42.17;27.37;;;;;;;4.58;86.51;101847.42;1647222;84;21284;-65
2021/03/01 05:10:40;;;;;;;38.98;26.55;;;;;;;4.51;86.71;101856.51;1618763;86;21251;-65
2021/03/01 05:13:06;;;;;;;40.37;24.90;;;;;;;4.48;86.83;101861.42;1643681;85;22814;-66
2021/03/01 05:15:32;;;;;;;38.95;25.43;;;;;;;4.50;87.03;101854.80;1642652;85;28352;-66
2021/03/01 05:17:58;;;;;;;36.58;23.60;;;;;;;4.52;87.11;101857.34;1643816;84;27304;-65
2021/03/01 05:20:24;;;;;;;34.63;22.40;;;;;;;4.37;87.15;101865.49;1644292;84;21648;-65
2021/03/01 05:22:50;;;;;;;34.58;21.87;;;;;;;4.24;87.79;101864.77;1645795;84;21663;-65
2021/03/01 05:25:16;;;;;;;33.63;21.40;;;;;;;4.28;87.73;101870.22;1639843;85;24686;-66
2021/03/01 05:27:41;;;;;;;34.18;21.20;;;;;;;4.22;87.96;101871.81;1640007;85;21252;-65
2021/03/01 05:30:09;;;;;;;32.03;21.35;;;;;;;4.06;89.03;101879.54;1643282;84;26803;-65
2021/03/01 05:32:35;;;;;;;34.03;20.52;;;;;;;4.02;89.22;101883.67;1647508;84;21924;-65
2021/03/01 05:35:00;;;;;;;37.33;21.63;;;;;;;4.00;89.62;101886.83;1642021;86;27446;-65
2021/03/01 05:37:27;;;;;;;39.45;22.13;;;;;;;3.93;90.19;101881.88;1643536;84;21210;-65
2021/03/01 05:39:52;;;;;;;33.08;22.07;;;;;;;3.81;90.69;101891.58;1643393;85;21239;-66
2021/03/01 05:42:19;;;;;;;32.90;21.33;;;;;;;3.86;90.62;101892.69;1642480;85;26697;-66
2021/03/01 05:44:45;;;;;;;36.40;21.83;;;;;;;3.80;90.57;101893.80;1641454;85;21377;-66
2021/03/01 05:47:11;;;;;;;36.37;21.67;;;;;;;3.78;90.80;101895.17;1640464;85;26021;-66
2021/03/01 05:49:41;;;;;;;34.13;21.68;;;;;;;3.80;90.73;101898.19;1640911;85;21231;-67
2021/03/01 05:52:09;;;;;;;31.50;21.20;;;;;;;3.81;91.08;101895.94;1643558;84;21246;-67
2021/03/01 05:54:35;;;;;;;34.23;21.45;;;;;;;3.74;91.05;101905.83;1644809;84;21625;-67
2021/03/01 05:57:07;;;;;;;33.98;19.82;;;;;;;3.65;91.55;101912.77;1641111;86;22406;-68
2021/03/01 05:59:33;;;;;;;31.35;20.00;;;;;;;3.86;91.03;101919.66;1641756;85;21685;-68
2021/03/01 06:01:59;;;;;;;29.27;19.65;;;;;;;3.90;90.48;101916.00;1644055;85;21222;-68
2021/03/01 06:04:28;;;;;;;32.80;19.27;;;;;;;3.78;90.61;101930.45;1641970;85;28313;-68
2021/03/01 06:06:54;;;;;;;28.83;19.25;;;;;;;3.72;90.91;101929.88;1643952;84;21215;-67
2021/03/01 06:09:20;;;;;;;31.90;19.07;;;;;;;3.64;91.60;101928.07;1642280;85;21614;-69
2021/03/01 06:11:51;;;;;;;29.73;19.80;;;;;;;3.62;91.85;101936.41;1642273;84;25696;-68
2021/03/01 06:14:16;;;;;;;29.65;20.43;;;;;;;3.58;92.00;101936.55;1620479;86;21226;-66
2021/03/01 06:17:19;;;;;;;36.60;21.85;;;;;;;3.53;92.38;101935.91;1618588;85;28736;-67
2021/03/01 06:19:54;;;;;;;33.42;22.13;;;;;;;3.47;93.00;101941.39;1641851;85;21258;-68
2021/03/01 06:22:24;;;;;;;31.05;20.55;;;;;;;3.35;93.56;101941.91;1642181;85;21388;-67
2021/03/01 06:25:07;;;;;;;32.15;19.15;;;;;;;3.31;93.73;101942.95;1641286;84;21212;-69
2021/03/01 06:27:50;;;;;;;34.90;21.57;;;;;;;3.26;94.02;101937.08;1641791;85;21486;-69
2021/03/01 06:30:23;;;;;;;36.33;21.17;;;;;;;3.23;94.43;101945.45;1647548;84;21183;-69
2021/03/01 06:33:06;;;;;;;33.33;19.25;;;;;;;3.26;94.20;101946.22;1644718;85;21302;-69
2021/03/01 06:35:50;;;;;;;31.35;20.35;;;;;;;3.12;95.03;101951.55;1643307;84;21268;-68
2021/03/01 06:38:26;;;;;;;36.33;20.95;;;;;;;3.05;95.47;101946.20;1640870;84;21690;-69
2021/03/01 06:41:17;;;;;;;34.55;20.37;;;;;;;3.07;95.50;101959.20;1643026;85;21195;-68
2021/03/01 06:43:58;;;;;;;33.05;20.35;;;;;;;3.10;95.07;101953.38;1641379;84;21251;-68
2021/03/01 06:46:27;;;;;;;33.00;18.67;;;;;;;3.12;95.37;101950.23;1642161;85;21228;-69
2021/03/01 06:48:52;;;;;;;32.50;19.15;;;;;;;3.28;94.88;101949.60;1646588;85;22760;-70
2021/03/01 06:51:18;;;;;;;33.00;20.33;;;;;;;3.37;94.34;101959.23;1646327;84;21591;-68
2021/03/01 06:53:45;;;;;;;29.55;20.12;;;;;;;3.36;94.24;101959.29;1646988;84;21219;-68
2021/03/01 06:56:13;;;;;;;37.25;20.10;;;;;;;3.27;94.65;101949.23;1650417;85;21718;-68
2021/03/01 06:58:46;;;;;;;;;;;;;;;3.24;94.83;101961.48;1651742;85;21135;-68
2021/03/01 07:01:16;;;;;;;29.80;17.23;;;;;;;3.28;94.72;101960.92;1650822;84;21426;-68
2021/03/01 07:03:47;;;;;;;33.50;18.30;;;;;;;3.23;94.63;101961.55;1650159;85;21677;-68
2021/03/01 07:06:13;;;;;;;29.18;17.48;;;;;;;3.17;94.68;101965.28;1652509;84;21268;-67
2021/03/01 07:08:53;;;;;;;29.18;18.20;;;;;;;3.12;95.02;101975.04;1649815;85;28321;-67
2021/03/01 07:11:37;;;;;;;32.35;18.77;;;;;;;3.11;95.00;101969.88;1650001;85;21176;-67
2021/03/01 07:14:10;;;;;;;26.35;16.60;;;;;;;3.26;94.93;101965.80;1648775;85;21307;-68
2021/03/01 07:16:49;;;;;;;27.65;17.20;;;;;;;3.40;94.33;101969.55;1650108;85;21267;-68
2021/03/01 07:19:21;;;;;;;28.07;17.00;;;;;;;3.48;93.86;101966.61;1650540;85;21811;-68
2021/03/01 07:21:50;;;;;;;24.25;16.15;;;;;;;3.64;93.43;101969.41;1651345;85;21231;-68
2021/03/01 07:24:18;;;;;;;31.55;17.52;;;;;;;3.72;92.69;101968.60;1648896;85;21208;-68
2021/03/01 07:26:44;;;;;;;;;;;;;;;3.63;92.43;101972.08;1650954;85;22315;-68
2021/03/01 07:29:17;;;;;;;31.68;17.55;;;;;;;3.52;92.72;101975.98;1647242;85;20609;-68
2021/03/01 07:31:55;;;;;;;28.05;16.97;;;;;;;3.49;92.96;101970.90;1648618;85;21219;-67
2021/03/01 07:34:18;;;;;;;35.68;19.50;;;;;;;3.31;93.63;101969.06;1648343;84;21250;-68
2021/03/01 07:36:44;;;;;;;33.73;20.92;;;;;;;3.24;94.27;101971.92;1649783;85;26810;-69
2021/03/01 07:39:11;;;;;;;36.43;20.37;;;;;;;3.32;94.21;101974.22;1650838;85;22279;-67
2021/03/01 07:41:38;;;;;;;36.23;22.10;;;;;;;3.35;94.47;101969.33;1651309;84;21278;-67
2021/03/01 07:44:04;;;;;;;33.83;20.32;;;;;;;3.49;94.29;101968.28;1649606;84;21263;-66
2021/03/01 07:46:33;;;;;;;35.55;19.87;;;;;;;3.53;94.01;101975.55;1651647;84;21251;-66
2021/03/01 07:48:59;;;;;;;31.42;20.80;;;;;;;3.48;93.94;101968.34;1648994;85;21837;-67
2021/03/01 07:51:46;;;;;;;31.82;20.72;;;;;;;3.33;94.30;101973.78;1652355;85;21238;-67
2021/03/01 07:54:17;;;;;;;33.18;20.27;;;;;;;3.23;95.05;101974.59;1642848;85;21243;-65
2021/03/01 07:56:48;;;;;;;31.25;18.60;;;;;;;3.22;95.30;101980.28;1641882;84;21715;-66
2021/03/01 07:59:21;;;;;;;34.23;21.12;;;;;;;3.21;95.18;101972.05;1642056;84;21295;-65
2021/03/01 08:02:07;;;;;;;37.63;21.50;;;;;;;3.22;95.60;101973.76;1630215;84;21232;-69
2021/03/01 08:04:34;;;;;;;32.93;19.95;;;;;;;3.19;95.55;101975.19;1638949;85;21262;-66
2021/03/01 08:07:00;;;;;;;37.25;21.05;;;;;;;3.16;95.60;101980.53;1639963;85;22186;-67
2021/03/01 08:09:50;;;;;;;32.90;21.27;;;;;;;3.02;96.04;101983.71;1646414;84;21872;-68
2021/03/01 08:12:39;;;;;;;31.02;21.02;;;;;;;3.05;96.23;101987.50;1643488;85;21243;-67
2021/03/01 08:15:09;;;;;;;39.27;21.50;;;;;;;3.19;95.90;101992.63;1640737;85;21149;-68
2021/03/01 08:17:37;;;;;;;34.33;21.80;;;;;;;3.20;95.52;102011.27;1628090;86;21445;-68
2021/03/01 08:20:26;;;;;;;38.17;22.77;;;;;;;3.16;95.46;102002.73;1642570;85;21251;-69
2021/03/01 08:23:10;;;;;;;39.65;22.93;;;;;;;3.06;95.79;102006.61;1646230;84;21240;-69
2021/03/01 08:25:51;;;;;;;40.23;23.77;;;;;;;3.23;95.42;102005.92;1641717;84;21136;-67
2021/03/01 08:28:35;;;;;;;40.67;23.90;;;;;;;3.32;95.04;102007.32;1642049;85;21242;-68
2021/03/01 08:30:56;;;;;;;39.70;26.25;;;;;;;3.28;94.80;102008.35;1640829;85;21541;-68
2021/03/01 08:33:26;;;;;;;42.62;25.37;;;;;;;3.13;95.35;102005.47;1642228;86;21255;-66
2021/03/01 08:35:53;;;;;;;49.70;28.27;;;;;;;3.14;95.58;102007.17;1643047;84;21271;-67
2021/03/01 08:38:47;;;;;;;50.58;31.05;;;;;;;3.15;95.89;102008.84;1642819;85;21239;-68
2021/03/01 08:41:16;;;;;;;50.28;28.42;;;;;;;3.27;95.44;102014.50;1644540;84;21254;-69
2021/03/01 08:43:48;;;;;;;48.60;31.25;;;;;;;3.30;95.59;102009.16;1639851;85;22108;-70
2021/03/01 08:46:19;;;;;;;46.68;30.48;;;;;;;3.18;95.60;102028.77;1641314;85;22076;-68
2021/03/01 08:48:47;;;;;;;53.40;28.70;;;;;;;3.16;96.10;102021.00;1642298;85;21187;-67
2021/03/01 08:51:13;;;;;;;51.15;28.60;;;;;;;3.09;96.47;102031.28;1640299;85;21247;-68
2021/03/01 08:53:39;;;;;;;46.95;25.48;;;;;;;3.08;96.83;102038.73;1642344;85;21216;-69
2021/03/01 08:56:05;;;;;;;41.03;24.97;;;;;;;3.11;96.44;102041.23;1644838;85;21377;-69
2021/03/01 08:58:35;;;;;;;38.63;23.57;;;;;;;3.18;96.03;102041.36;1644905;85;25567;-69
2021/03/01 09:01:03;;;;;;;38.80;22.37;;;;;;;3.16;95.92;102056.24;1644302;85;21290;-70
2021/03/01 09:03:31;;;;;;;31.97;19.20;;;;;;;3.15;95.93;102055.84;1639768;85;21212;-67
2021/03/01 09:06:19;;;;;;;32.33;17.90;;;;;;;3.30;95.32;102054.39;1645625;85;22910;-69
2021/03/01 09:08:56;;;;;;;34.92;19.67;;;;;;;3.36;95.11;102059.36;1639720;85;21660;-68
2021/03/01 09:11:30;;;;;;;47.40;25.02;;;;;;;3.22;95.35;102067.75;1645864;85;21258;-67
2021/03/01 09:14:04;;;;;;;36.05;24.02;;;;;;;3.21;95.64;102063.42;1644321;85;21620;-68
2021/03/01 09:16:33;;;;;;;42.95;23.12;;;;;;;3.20;95.90;102056.96;1642200;85;21217;-68
2021/03/01 09:19:08;;;;;;;40.85;21.68;;;;;;;3.28;95.99;102055.34;1642290;85;21231;-67
2021/03/01 09:21:37;;;;;;;35.40;21.05;;;;;;;3.32;95.77;102055.16;1640500;85;21664;-68
2021/03/01 09:24:03;;;;;;;38.63;21.00;;;;;;;3.32;95.73;102066.08;1642587;85;21611;-68
2021/03/01 09:26:37;;;;;;;40.25;21.97;;;;;;;3.35;95.75;102058.12;1645300;85;21208;-67
2021/03/01 09:29:12;;;;;;;39.08;21.65;;;;;;;3.37;95.67;102061.50;1641595;85;21303;-68
2021/03/01 09:31:47;;;;;;;32.45;20.35;;;;;;;3.38;95.47;102070.58;1643409;85;21542;-68
2021/03/01 09:34:15;;;;;;;40.40;21.55;;;;;;;3.36;95.64;102068.97;1645355;85;21243;-68
2021/03/01 09:36:48;;;;;;;43.17;23.65;;;;;;;3.36;96.04;102067.66;1642126;85;21214;-68
2021/03/01 09:39:21;;;;;;;36.70;23.10;;;;;;;3.32;96.14;102072.14;1643203;85;21248;-68
2021/03/01 09:41:47;;;;;;;43.63;23.22;;;;;;;3.21;96.50;102069.95;1644187;85;21202;-67
2021/03/01 09:44:32;;;;;;;38.33;23.52;;;;;;;3.16;96.92;102076.29;1642800;85;21689;-67
2021/03/01 09:46:58;;;;;;;36.42;20.10;;;;;;;3.05;96.96;102067.57;1640911;85;21359;-67
2021/03/01 09:49:26;;;;;;;40.43;21.23;;;;;;;3.03;97.02;102069.38;1641711;85;21210;-68
2021/03/01 09:51:52;;;;;;;33.45;21.12;;;;;;;3.08;97.26;102061.36;1640603;85;21534;-68
2021/03/01 09:54:18;;;;;;;34.18;19.95;;;;;;;3.11;97.31;102069.07;1632462;84;21232;-67
2021/03/01 09:56:50;;;;;;;35.30;21.60;;;;;;;3.04;96.99;102076.30;1599013;87;26085;-69
2021/03/01 09:59:42;;;;;;;37.38;20.48;;;;;;;3.04;97.31;102064.56;1625899;87;21428;-68
2021/03/01 10:02:25;;;;;;;33.10;20.77;;;;;;;3.18;96.98;102076.60;1602283;87;21324;-66
2021/03/01 10:04:54;;;;;;;40.38;22.30;;;;;;;3.21;96.87;102069.95;1617625;87;21237;-67
2021/03/01 10:07:24;;;;;;;34.98;21.80;;;;;;;3.43;96.26;102073.02;1619352;87;21614;-67
2021/03/01 10:09:51;;;;;;;34.80;22.20;;;;;;;3.48;95.59;102077.61;1627683;86;21293;-67
2021/03/01 10:12:17;;;;;;;50.83;25.25;;;;;;;3.36;95.60;102080.25;1623952;86;21439;-68
2021/03/01 10:14:43;;;;;;;37.95;24.40;;;;;;;3.27;96.05;102086.30;1622374;86;21571;-67
2021/03/01 10:17:30;;;;;;;36.68;24.02;;;;;;;3.23;96.58;102095.56;1604081;87;21307;-66
2021/03/01 10:20:11;;;;;;;41.48;23.80;;;;;;;3.27;96.68;102099.36;1627864;87;21239;-67
2021/03/01 10:23:06;;;;;;;39.78;25.70;;;;;;;3.21;96.86;102102.59;1605781;87;21231;-66
2021/03/01 10:25:44;;;;;;;49.45;27.70;;;;;;;3.24;96.69;102102.47;1624618;86;21303;-66
2021/03/01 10:28:33;;;;;;;49.53;27.50;;;;;;;3.11;97.08;102107.80;1624521;86;21280;-67
2021/03/01 10:31:06;;;;;;;48.08;26.55;;;;;;;3.13;97.22;102113.80;1591512;87;21263;-67
2021/03/01 10:33:57;;;;;;;43.48;27.13;;;;;;;3.10;97.71;102104.77;1579024;87;21702;-67
2021/03/01 10:36:33;;;;;;;52.93;28.02;;;;;;;3.07;97.88;102097.06;1627758;86;21227;-67
2021/03/01 10:39:08;;;;;;;50.30;27.98;;;;;;;3.17;97.75;102106.25;1595565;87;22841;-67
2021/03/01 10:41:50;;;;;;;46.30;26.15;;;;;;;3.12;98.08;102096.89;1622793;87;21688;-68
2021/03/01 10:44:16;;;;;;;46.33;25.62;;;;;;;3.27;97.55;102095.45;1628815;87;21236;-67
2021/03/01 10:46:48;;;;;;;46.53;25.52;;;;;;;3.39;97.06;102098.88;1621063;87;21530;-69
2021/03/01 10:49:28;;;;;;;48.02;25.60;;;;;;;3.35;96.86;102099.90;1626898;87;21659;-67
2021/03/01 10:51:56;;;;;;;41.42;24.25;;;;;;;3.21;96.95;102102.59;1602833;87;21335;-67
2021/03/01 10:54:22;;;;;;;34.50;21.82;;;;;;;3.23;97.23;102107.31;1633415;84;21680;-66
2021/03/01 10:56:48;;;;;;;38.28;23.10;;;;;;;3.33;96.74;102095.20;1641931;84;22365;-65
2021/03/01 10:59:14;;;;;;;40.10;23.98;;;;;;;3.42;96.54;102083.09;1642850;85;21205;-65
2021/03/01 11:01:42;;;;;;;46.65;22.85;;;;;;;3.48;96.33;102082.84;1643670;84;21195;-67
2021/03/01 11:04:09;;;;;;;39.95;24.70;;;;;;;3.54;96.33;102079.10;1641362;85;21635;-66
2021/03/01 11:06:35;;;;;;;49.73;23.77;;;;;;;3.63;96.12;102079.19;1649381;85;21220;-66
2021/03/01 11:09:02;;;;;;;48.13;25.93;;;;;;;3.59;96.04;102076.70;1644158;84;21863;-68
2021/03/01 11:11:27;;;;;;;40.33;24.77;;;;;;;3.58;96.24;102073.69;1644682;84;21211;-68
2021/03/01 11:13:53;;;;;;;45.38;25.05;;;;;;;3.61;96.24;102087.56;1640962;84;26764;-68
2021/03/01 11:16:19;;;;;;;42.38;25.35;;;;;;;3.70;95.88;102076.73;1642828;85;21117;-68
2021/03/01 11:18:45;;;;;;;47.77;26.57;;;;;;;3.65;96.10;102079.97;1640970;85;25497;-67
2021/03/01 11:21:11;;;;;;;43.17;26.85;;;;;;;3.55;95.89;102084.27;1618187;86;34150;-67
2021/03/01 11:23:37;;;;;;;45.85;26.00;;;;;;;3.62;95.83;102086.19;1644686;85;28412;-67
2021/03/01 11:26:03;;;;;;;38.48;25.02;;;;;;;3.56;96.15;102083.36;1643363;85;26720;-68
2021/03/01 11:28:29;;;;;;;42.23;25.85;;;;;;;3.63;96.16;102076.58;1642952;85;22413;-68
2021/03/01 11:30:55;;;;;;;45.23;26.43;;;;;;;3.69;95.94;102076.33;1640472;85;23545;-66